sensor_id;sensor_type;location;lat;lon;timestamp;temperature;humidity
8939;DHT22;4504;48.810;9.172;2022-12-18T00:00:59;-4.50;99.90
8939;DHT22;4504;48.810;9.172;2022-12-18T00:03:26;-4.60;99.90
8939;DHT22;4504;48.810;9.172;2022-12-18T00:05:54;-4.50;99.90
8939;DHT22;4504;48.810;9.172;2022-12-18T00:08:21;-4.50;99.90
8939;DHT22;4504;48.810;9.172;2022-12-18T00:10:49;-4.50;99.90
8939;DHT22;4504;48.810;9.172;2022-12-18T00:13:15;-4.50;99.90
8939;DHT22;4504;48.810;9.172;2022-12-18T00:15:42;-4.60;99.90
8939;DHT22;4504;48.810;9.172;2022-12-18T00:18:09;-4.60;99.90
8939;DHT22;4504;48.810;9.172;2022-12-18T00:20:37;-4.70;99.90
8939;DHT22;4504;48.810;9.172;2022-12-18T00:23:06;-4.70;99.90
8939;DHT22;4504;48.810;9.172;2022-12-18T00:25:34;-4.70;99.90
8939;DHT22;4504;48.810;9.172;2022-12-18T00:28:01;-4.80;99.90
8939;DHT22;4504;48.810;9.172;2022-12-18T00:30:28;-4.80;99.90
8939;DHT22;4504;48.810;9.172;2022-12-18T00:32:55;-4.80;99.90
8939;DHT22;4504;48.810;9.172;2022-12-18T00:35:25;-4.90;99.90
8939;DHT22;4504;48.810;9.172;2022-12-18T00:37:52;-4.90;99.90
8939;DHT22;4504;48.810;9.172;2022-12-18T00:40:20;-4.80;99.90
8939;DHT22;4504;48.810;9.172;2022-12-18T00:42:47;-4.80;99.90
8939;DHT22;4504;48.810;9.172;2022-12-18T00:45:23;-4.80;99.90
8939;DHT22;4504;48.810;9.172;2022-12-18T00:47:50;-4.80;99.90
8939;DHT22;4504;48.810;9.172;2022-12-18T00:50:17;-4.80;99.90
8939;DHT22;4504;48.810;9.172;2022-12-18T00:52:44;-4.80;99.90
8939;DHT22;4504;48.810;9.172;2022-12-18T00:55:12;-4.80;99.90
8939;DHT22;4504;48.810;9.172;2022-12-18T00:57:41;-4.80;99.90
8939;DHT22;4504;48.810;9.172;2022-12-18T01:00:10;-4.80;99.90
8939;DHT22;4504;48.810;9.172;2022-12-18T01:02:37;-4.80;99.90
8939;DHT22;4504;48.810;9.172;2022-12-18T01:05:06;-4.80;99.90
8939;DHT22;4504;48.810;9.172;2022-12-18T01:07:33;-4.80;99.90
8939;DHT22;4504;48.810;9.172;2022-12-18T01:10:02;-4.80;99.90
8939;DHT22;4504;48.810;9.172;2022-12-18T01:12:30;-4.80;99.90
8939;DHT22;4504;48.810;9.172;2022-12-18T01:14:58;-4.90;99.90
8939;DHT22;4504;48.810;9.172;2022-12-18T01:17:26;-4.80;99.90
8939;DHT22;4504;48.810;9.172;2022-12-18T01:19:53;-4.80;99.90
8939;DHT22;4504;48.810;9.172;2022-12-18T01:22:20;-4.80;99.90
8939;DHT22;4504;48.810;9.172;2022-12-18T01:24:46;-4.80;99.90
8939;DHT22;4504;48.810;9.172;2022-12-18T01:27:13;-4.80;99.90
8939;DHT22;4504;48.810;9.172;2022-12-18T01:29:40;-4.90;99.90
8939;DHT22;4504;48.810;9.172;2022-12-18T01:32:09;-4.90;99.90
8939;DHT22;4504;48.810;9.172;2022-12-18T01:34:36;-4.90;99.90
8939;DHT22;4504;48.810;9.172;2022-12-18T01:37:04;-4.90;99.90
8939;DHT22;4504;48.810;9.172;2022-12-18T01:39:32;-4.90;99.90
8939;DHT22;4504;48.810;9.172;2022-12-18T01:41:59;-4.90;99.90
8939;DHT22;4504;48.810;9.172;2022-12-18T01:44:53;-4.90;99.90
8939;DHT22;4504;48.810;9.172;2022-12-18T01:47:25;-4.90;99.90
8939;DHT22;4504;48.810;9.172;2022-12-18T01:49:53;-4.90;99.90
8939;DHT22;4504;48.810;9.172;2022-12-18T01:52:21;-4.90;99.90
8939;DHT22;4504;48.810;9.172;2022-12-18T01:54:50;-5.00;99.90
8939;DHT22;4504;48.810;9.172;2022-12-18T01:57:18;-5.00;99.90
8939;DHT22;4504;48.810;9.172;2022-12-18T01:59:49;-5.00;99.90
8939;DHT22;4504;48.810;9.172;2022-12-18T02:02:18;-5.10;99.90
8939;DHT22;4504;48.810;9.172;2022-12-18T02:04:47;-5.00;99.90
8939;DHT22;4504;48.810;9.172;2022-12-18T02:07:19;-5.00;99.90
8939;DHT22;4504;48.810;9.172;2022-12-18T02:09:53;-5.10;99.90
8939;DHT22;4504;48.810;9.172;2022-12-18T02:12:25;-5.10;99.90
8939;DHT22;4504;48.810;9.172;2022-12-18T02:14:57;-5.10;99.90
8939;DHT22;4504;48.810;9.172;2022-12-18T02:17:30;-5.00;99.90
8939;DHT22;4504;48.810;9.172;2022-12-18T02:20:11;-5.10;99.90
8939;DHT22;4504;48.810;9.172;2022-12-18T02:22:49;-5.00;99.90
8939;DHT22;4504;48.810;9.172;2022-12-18T02:25:30;-5.00;99.90
8939;DHT22;4504;48.810;9.172;2022-12-18T02:28:05;-5.00;99.90
8939;DHT22;4504;48.810;9.172;2022-12-18T02:30:35;-5.00;99.90
8939;DHT22;4504;48.810;9.172;2022-12-18T02:33:06;-5.00;99.90
8939;DHT22;4504;48.810;9.172;2022-12-18T02:35:34;-4.90;99.90
8939;DHT22;4504;48.810;9.172;2022-12-18T02:38:04;-4.90;99.90
8939;DHT22;4504;48.810;9.172;2022-12-18T02:40:35;-4.90;99.90
8939;DHT22;4504;48.810;9.172;2022-12-18T02:43:09;-4.90;99.90
8939;DHT22;4504;48.810;9.172;2022-12-18T02:45:46;-4.90;99.90
8939;DHT22;4504;48.810;9.172;2022-12-18T02:48:14;-4.90;99.90
8939;DHT22;4504;48.810;9.172;2022-12-18T02:50:48;-4.90;99.90
8939;DHT22;4504;48.810;9.172;2022-12-18T02:53:24;-5.00;99.90
8939;DHT22;4504;48.810;9.172;2022-12-18T02:56:01;-5.00;99.90
8939;DHT22;4504;48.810;9.172;2022-12-18T02:58:36;-4.90;99.90
8939;DHT22;4504;48.810;9.172;2022-12-18T03:01:16;-4.90;99.90
8939;DHT22;4504;48.810;9.172;2022-12-18T03:03:51;-4.90;99.90
8939;DHT22;4504;48.810;9.172;2022-12-18T03:06:24;-4.90;99.90
8939;DHT22;4504;48.810;9.172;2022-12-18T03:08:57;-4.90;99.90
8939;DHT22;4504;48.810;9.172;2022-12-18T03:11:29;-4.90;99.90
8939;DHT22;4504;48.810;9.172;2022-12-18T03:14:18;-5.00;99.90
8939;DHT22;4504;48.810;9.172;2022-12-18T03:16:50;-5.00;99.90
8939;DHT22;4504;48.810;9.172;2022-12-18T03:19:22;-4.90;99.90
8939;DHT22;4504;48.810;9.172;2022-12-18T03:21:54;-4.90;99.90
8939;DHT22;4504;48.810;9.172;2022-12-18T03:24:26;-4.90;99.90
8939;DHT22;4504;48.810;9.172;2022-12-18T03:26:58;-4.80;99.90
8939;DHT22;4504;48.810;9.172;2022-12-18T03:29:31;-4.80;99.90
8939;DHT22;4504;48.810;9.172;2022-12-18T03:32:04;-4.80;99.90
8939;DHT22;4504;48.810;9.172;2022-12-18T03:34:36;-4.80;99.90
8939;DHT22;4504;48.810;9.172;2022-12-18T03:37:07;-4.80;99.90
8939;DHT22;4504;48.810;9.172;2022-12-18T03:39:36;-4.80;99.90
8939;DHT22;4504;48.810;9.172;2022-12-18T03:42:07;-4.90;99.90
8939;DHT22;4504;48.810;9.172;2022-12-18T03:44:45;-4.90;99.90
8939;DHT22;4504;48.810;9.172;2022-12-18T03:47:23;-4.90;99.90
8939;DHT22;4504;48.810;9.172;2022-12-18T03:49:57;-4.90;99.90
8939;DHT22;4504;48.810;9.172;2022-12-18T03:52:35;-5.00;99.90
8939;DHT22;4504;48.810;9.172;2022-12-18T03:55:04;-5.00;99.90
8939;DHT22;4504;48.810;9.172;2022-12-18T03:57:33;-5.00;99.90
8939;DHT22;4504;48.810;9.172;2022-12-18T04:00:08;-5.00;99.90
8939;DHT22;4504;48.810;9.172;2022-12-18T04:02:56;-5.00;99.90
8939;DHT22;4504;48.810;9.172;2022-12-18T04:05:33;-5.00;99.90
8939;DHT22;4504;48.810;9.172;2022-12-18T04:08:02;-5.10;99.90
8939;DHT22;4504;48.810;9.172;2022-12-18T04:10:33;-5.10;99.90
8939;DHT22;4504;48.810;9.172;2022-12-18T04:13:01;-5.10;99.90
8939;DHT22;4504;48.810;9.172;2022-12-18T04:15:32;-5.10;99.90
8939;DHT22;4504;48.810;9.172;2022-12-18T04:18:02;-5.10;99.90
8939;DHT22;4504;48.810;9.172;2022-12-18T04:20:36;-5.20;99.90
8939;DHT22;4504;48.810;9.172;2022-12-18T04:23:03;-5.20;99.90
8939;DHT22;4504;48.810;9.172;2022-12-18T04:25:30;-5.20;99.90
8939;DHT22;4504;48.810;9.172;2022-12-18T04:28:06;-5.20;99.90
8939;DHT22;4504;48.810;9.172;2022-12-18T04:30:36;-5.20;99.90
8939;DHT22;4504;48.810;9.172;2022-12-18T04:33:07;-5.20;99.90
8939;DHT22;4504;48.810;9.172;2022-12-18T04:35:34;-5.20;99.90
8939;DHT22;4504;48.810;9.172;2022-12-18T04:38:01;-5.20;99.90
8939;DHT22;4504;48.810;9.172;2022-12-18T04:40:28;-5.20;99.90
8939;DHT22;4504;48.810;9.172;2022-12-18T04:42:56;-5.20;99.90
8939;DHT22;4504;48.810;9.172;2022-12-18T04:45:23;-5.20;99.90
8939;DHT22;4504;48.810;9.172;2022-12-18T04:47:51;-5.20;99.90
8939;DHT22;4504;48.810;9.172;2022-12-18T04:50:18;-5.20;99.90
8939;DHT22;4504;48.810;9.172;2022-12-18T04:52:45;-5.20;99.90
8939;DHT22;4504;48.810;9.172;2022-12-18T04:55:12;-5.20;99.90
8939;DHT22;4504;48.810;9.172;2022-12-18T04:57:39;-5.20;99.90
8939;DHT22;4504;48.810;9.172;2022-12-18T05:00:08;-5.20;99.90
8939;DHT22;4504;48.810;9.172;2022-12-18T05:02:35;-5.30;99.90
8939;DHT22;4504;48.810;9.172;2022-12-18T05:05:04;-5.30;99.90
8939;DHT22;4504;48.810;9.172;2022-12-18T05:07:31;-5.20;99.90
8939;DHT22;4504;48.810;9.172;2022-12-18T05:09:58;-5.20;99.90
8939;DHT22;4504;48.810;9.172;2022-12-18T05:12:25;-5.20;99.90
8939;DHT22;4504;48.810;9.172;2022-12-18T05:14:52;-5.20;99.90
8939;DHT22;4504;48.810;9.172;2022-12-18T05:17:19;-5.30;99.90
8939;DHT22;4504;48.810;9.172;2022-12-18T05:19:46;-5.30;99.90
8939;DHT22;4504;48.810;9.172;2022-12-18T05:22:14;-5.30;99.90
8939;DHT22;4504;48.810;9.172;2022-12-18T05:24:42;-5.30;99.90
8939;DHT22;4504;48.810;9.172;2022-12-18T05:27:08;-5.20;99.90
8939;DHT22;4504;48.810;9.172;2022-12-18T05:29:35;-5.20;99.90
8939;DHT22;4504;48.810;9.172;2022-12-18T05:32:03;-5.20;99.90
8939;DHT22;4504;48.810;9.172;2022-12-18T05:34:30;-5.20;99.90
8939;DHT22;4504;48.810;9.172;2022-12-18T05:36:57;-5.20;99.90
8939;DHT22;4504;48.810;9.172;2022-12-18T05:39:25;-5.20;99.90
8939;DHT22;4504;48.810;9.172;2022-12-18T05:41:52;-5.20;99.90
8939;DHT22;4504;48.810;9.172;2022-12-18T05:44:19;-5.30;99.90
8939;DHT22;4504;48.810;9.172;2022-12-18T05:46:46;-5.30;99.90
8939;DHT22;4504;48.810;9.172;2022-12-18T05:49:13;-5.30;99.90
8939;DHT22;4504;48.810;9.172;2022-12-18T05:51:40;-5.30;99.90
8939;DHT22;4504;48.810;9.172;2022-12-18T05:54:07;-5.30;99.90
8939;DHT22;4504;48.810;9.172;2022-12-18T05:56:36;-5.30;99.90
8939;DHT22;4504;48.810;9.172;2022-12-18T05:59:03;-5.30;99.90
8939;DHT22;4504;48.810;9.172;2022-12-18T06:01:30;-5.30;99.90
8939;DHT22;4504;48.810;9.172;2022-12-18T06:03:57;-5.40;99.90
8939;DHT22;4504;48.810;9.172;2022-12-18T06:06:26;-5.30;99.90
8939;DHT22;4504;48.810;9.172;2022-12-18T06:08:54;-5.40;99.90
8939;DHT22;4504;48.810;9.172;2022-12-18T06:11:23;-5.40;99.90
8939;DHT22;4504;48.810;9.172;2022-12-18T06:13:53;-5.40;99.90
8939;DHT22;4504;48.810;9.172;2022-12-18T06:16:20;-5.40;99.90
8939;DHT22;4504;48.810;9.172;2022-12-18T06:18:47;-5.50;99.90
8939;DHT22;4504;48.810;9.172;2022-12-18T06:21:14;-5.50;99.90
8939;DHT22;4504;48.810;9.172;2022-12-18T06:23:41;-5.50;99.90
8939;DHT22;4504;48.810;9.172;2022-12-18T06:26:10;-5.50;99.90
8939;DHT22;4504;48.810;9.172;2022-12-18T06:28:38;-5.50;99.90
8939;DHT22;4504;48.810;9.172;2022-12-18T06:31:07;-5.50;99.90
8939;DHT22;4504;48.810;9.172;2022-12-18T06:33:35;-5.60;99.90
8939;DHT22;4504;48.810;9.172;2022-12-18T06:36:04;-5.60;99.90
8939;DHT22;4504;48.810;9.172;2022-12-18T06:38:31;-5.60;99.90
8939;DHT22;4504;48.810;9.172;2022-12-18T06:40:59;-5.60;99.90
8939;DHT22;4504;48.810;9.172;2022-12-18T06:43:26;-5.60;99.90
8939;DHT22;4504;48.810;9.172;2022-12-18T06:45:58;-5.60;99.90
8939;DHT22;4504;48.810;9.172;2022-12-18T06:48:27;-5.60;99.90
8939;DHT22;4504;48.810;9.172;2022-12-18T06:50:54;-5.60;99.90
8939;DHT22;4504;48.810;9.172;2022-12-18T06:53:21;-5.70;99.90
8939;DHT22;4504;48.810;9.172;2022-12-18T06:55:48;-5.70;99.90
8939;DHT22;4504;48.810;9.172;2022-12-18T06:58:15;-5.70;99.90
8939;DHT22;4504;48.810;9.172;2022-12-18T07:00:43;-5.70;99.90
8939;DHT22;4504;48.810;9.172;2022-12-18T07:03:10;-5.70;99.90
8939;DHT22;4504;48.810;9.172;2022-12-18T07:05:40;-5.80;99.90
8939;DHT22;4504;48.810;9.172;2022-12-18T07:08:08;-5.80;99.90
8939;DHT22;4504;48.810;9.172;2022-12-18T07:10:40;-5.80;99.90
8939;DHT22;4504;48.810;9.172;2022-12-18T07:13:08;-5.80;99.90
8939;DHT22;4504;48.810;9.172;2022-12-18T07:15:35;-5.70;99.90
8939;DHT22;4504;48.810;9.172;2022-12-18T07:18:02;-5.70;99.90
8939;DHT22;4504;48.810;9.172;2022-12-18T07:20:29;-5.80;99.90
8939;DHT22;4504;48.810;9.172;2022-12-18T07:22:57;-5.70;99.90
8939;DHT22;4504;48.810;9.172;2022-12-18T07:25:24;-5.80;99.90
8939;DHT22;4504;48.810;9.172;2022-12-18T07:27:51;-5.80;99.90
8939;DHT22;4504;48.810;9.172;2022-12-18T07:30:18;-5.80;99.90
8939;DHT22;4504;48.810;9.172;2022-12-18T07:32:46;-5.80;99.90
8939;DHT22;4504;48.810;9.172;2022-12-18T07:35:13;-5.80;99.90
8939;DHT22;4504;48.810;9.172;2022-12-18T07:37:40;-5.80;99.90
8939;DHT22;4504;48.810;9.172;2022-12-18T07:40:11;-5.80;99.90
8939;DHT22;4504;48.810;9.172;2022-12-18T07:42:38;-5.90;99.90
8939;DHT22;4504;48.810;9.172;2022-12-18T07:45:06;-5.90;99.90
8939;DHT22;4504;48.810;9.172;2022-12-18T07:47:35;-5.90;99.90
8939;DHT22;4504;48.810;9.172;2022-12-18T07:50:03;-5.90;99.90
8939;DHT22;4504;48.810;9.172;2022-12-18T07:52:30;-5.90;99.90
8939;DHT22;4504;48.810;9.172;2022-12-18T07:54:57;-5.90;99.90
8939;DHT22;4504;48.810;9.172;2022-12-18T07:57:25;-5.90;99.90
8939;DHT22;4504;48.810;9.172;2022-12-18T07:59:52;-5.90;99.90
8939;DHT22;4504;48.810;9.172;2022-12-18T08:02:19;-5.90;99.90
8939;DHT22;4504;48.810;9.172;2022-12-18T08:04:46;-5.90;99.90
8939;DHT22;4504;48.810;9.172;2022-12-18T08:07:13;-5.80;99.90
8939;DHT22;4504;48.810;9.172;2022-12-18T08:09:40;-5.90;99.90
8939;DHT22;4504;48.810;9.172;2022-12-18T08:12:07;-5.90;99.90
8939;DHT22;4504;48.810;9.172;2022-12-18T08:14:36;-5.80;99.90
8939;DHT22;4504;48.810;9.172;2022-12-18T08:17:03;-5.80;99.90
8939;DHT22;4504;48.810;9.172;2022-12-18T08:19:30;-5.80;99.90
8939;DHT22;4504;48.810;9.172;2022-12-18T08:21:57;-5.80;99.90
8939;DHT22;4504;48.810;9.172;2022-12-18T08:24:24;-5.80;99.90
8939;DHT22;4504;48.810;9.172;2022-12-18T08:26:51;-5.80;99.90
8939;DHT22;4504;48.810;9.172;2022-12-18T08:29:18;-5.70;99.90
8939;DHT22;4504;48.810;9.172;2022-12-18T08:31:46;-5.70;99.90
8939;DHT22;4504;48.810;9.172;2022-12-18T08:34:13;-5.60;99.90
8939;DHT22;4504;48.810;9.172;2022-12-18T08:36:40;-5.60;99.90
8939;DHT22;4504;48.810;9.172;2022-12-18T08:39:07;-5.50;99.90
8939;DHT22;4504;48.810;9.172;2022-12-18T08:41:34;-5.50;99.90
8939;DHT22;4504;48.810;9.172;2022-12-18T08:44:01;-5.50;99.90
8939;DHT22;4504;48.810;9.172;2022-12-18T08:46:47;-5.50;99.90
8939;DHT22;4504;48.810;9.172;2022-12-18T08:49:14;-5.50;99.90
8939;DHT22;4504;48.810;9.172;2022-12-18T08:51:41;-5.40;99.90
8939;DHT22;4504;48.810;9.172;2022-12-18T08:54:10;-5.40;99.90
8939;DHT22;4504;48.810;9.172;2022-12-18T08:56:37;-5.40;99.90
8939;DHT22;4504;48.810;9.172;2022-12-18T08:59:04;-5.30;99.90
8939;DHT22;4504;48.810;9.172;2022-12-18T09:01:31;-5.30;99.90
8939;DHT22;4504;48.810;9.172;2022-12-18T09:04:00;-5.30;99.90
8939;DHT22;4504;48.810;9.172;2022-12-18T09:06:27;-5.30;99.90
8939;DHT22;4504;48.810;9.172;2022-12-18T09:08:54;-5.20;99.90
8939;DHT22;4504;48.810;9.172;2022-12-18T09:11:22;-5.20;99.90
8939;DHT22;4504;48.810;9.172;2022-12-18T09:13:50;-5.20;99.90
8939;DHT22;4504;48.810;9.172;2022-12-18T09:16:18;-5.20;99.90
8939;DHT22;4504;48.810;9.172;2022-12-18T09:18:45;-5.20;99.90
8939;DHT22;4504;48.810;9.172;2022-12-18T09:21:15;-5.20;99.90
8939;DHT22;4504;48.810;9.172;2022-12-18T09:23:48;-5.10;99.90
8939;DHT22;4504;48.810;9.172;2022-12-18T09:26:18;-5.10;99.90
8939;DHT22;4504;48.810;9.172;2022-12-18T09:28:45;-5.00;99.90
8939;DHT22;4504;48.810;9.172;2022-12-18T09:31:12;-5.00;99.90
8939;DHT22;4504;48.810;9.172;2022-12-18T09:33:41;-4.90;99.90
8939;DHT22;4504;48.810;9.172;2022-12-18T09:36:10;-4.90;99.90
8939;DHT22;4504;48.810;9.172;2022-12-18T09:38:40;-5.00;99.90
8939;DHT22;4504;48.810;9.172;2022-12-18T09:41:30;-4.90;99.90
8939;DHT22;4504;48.810;9.172;2022-12-18T09:44:02;-4.90;99.90
8939;DHT22;4504;48.810;9.172;2022-12-18T09:46:36;-4.90;99.90
8939;DHT22;4504;48.810;9.172;2022-12-18T09:49:07;-4.90;99.90
8939;DHT22;4504;48.810;9.172;2022-12-18T09:51:40;-4.80;99.90
8939;DHT22;4504;48.810;9.172;2022-12-18T09:54:15;-4.70;99.90
8939;DHT22;4504;48.810;9.172;2022-12-18T09:56:43;-4.70;99.90
8939;DHT22;4504;48.810;9.172;2022-12-18T09:59:21;-4.70;99.90
8939;DHT22;4504;48.810;9.172;2022-12-18T10:01:49;-4.70;99.90
8939;DHT22;4504;48.810;9.172;2022-12-18T10:04:16;-4.70;99.90
8939;DHT22;4504;48.810;9.172;2022-12-18T10:06:46;-4.60;99.90
8939;DHT22;4504;48.810;9.172;2022-12-18T10:09:26;-4.50;99.90
8939;DHT22;4504;48.810;9.172;2022-12-18T10:11:57;-4.50;99.90
8939;DHT22;4504;48.810;9.172;2022-12-18T10:14:32;-4.50;99.90
8939;DHT22;4504;48.810;9.172;2022-12-18T10:17:10;-4.40;99.90
8939;DHT22;4504;48.810;9.172;2022-12-18T10:19:43;-4.30;99.90
8939;DHT22;4504;48.810;9.172;2022-12-18T10:22:23;-4.30;99.90
8939;DHT22;4504;48.810;9.172;2022-12-18T10:24:55;-4.30;99.90
8939;DHT22;4504;48.810;9.172;2022-12-18T10:27:26;-4.20;99.90
8939;DHT22;4504;48.810;9.172;2022-12-18T10:29:54;-4.20;99.90
8939;DHT22;4504;48.810;9.172;2022-12-18T10:32:22;-4.20;99.90
8939;DHT22;4504;48.810;9.172;2022-12-18T10:34:52;-4.10;99.90
8939;DHT22;4504;48.810;9.172;2022-12-18T10:37:22;-4.10;99.90
8939;DHT22;4504;48.810;9.172;2022-12-18T10:40:12;-4.00;99.90
8939;DHT22;4504;48.810;9.172;2022-12-18T10:42:39;-3.90;99.90
8939;DHT22;4504;48.810;9.172;2022-12-18T10:45:12;-3.90;99.90
8939;DHT22;4504;48.810;9.172;2022-12-18T10:47:43;-3.90;99.90
8939;DHT22;4504;48.810;9.172;2022-12-18T10:50:19;-3.80;99.90
8939;DHT22;4504;48.810;9.172;2022-12-18T10:52:54;-3.70;99.90
8939;DHT22;4504;48.810;9.172;2022-12-18T10:55:24;-3.60;99.90
8939;DHT22;4504;48.810;9.172;2022-12-18T10:57:53;-3.60;99.90
8939;DHT22;4504;48.810;9.172;2022-12-18T11:00:23;-3.50;99.90
8939;DHT22;4504;48.810;9.172;2022-12-18T11:02:51;-3.50;99.90
8939;DHT22;4504;48.810;9.172;2022-12-18T11:05:30;-3.40;99.90
8939;DHT22;4504;48.810;9.172;2022-12-18T11:07:58;-3.20;99.90
8939;DHT22;4504;48.810;9.172;2022-12-18T11:10:30;-3.20;99.90
8939;DHT22;4504;48.810;9.172;2022-12-18T11:13:10;-3.10;99.90
8939;DHT22;4504;48.810;9.172;2022-12-18T11:15:40;-3.00;99.90
8939;DHT22;4504;48.810;9.172;2022-12-18T11:18:16;-2.90;99.90
8939;DHT22;4504;48.810;9.172;2022-12-18T11:20:50;-2.90;99.90
8939;DHT22;4504;48.810;9.172;2022-12-18T11:23:19;-2.80;99.90
8939;DHT22;4504;48.810;9.172;2022-12-18T11:25:56;-2.80;99.90
8939;DHT22;4504;48.810;9.172;2022-12-18T11:28:29;-2.70;99.90
8939;DHT22;4504;48.810;9.172;2022-12-18T11:31:23;-2.70;99.90
8939;DHT22;4504;48.810;9.172;2022-12-18T11:34:04;-2.70;99.90
8939;DHT22;4504;48.810;9.172;2022-12-18T11:36:38;-2.60;99.90
8939;DHT22;4504;48.810;9.172;2022-12-18T11:39:12;-2.60;99.90
8939;DHT22;4504;48.810;9.172;2022-12-18T11:41:49;-2.50;99.90
8939;DHT22;4504;48.810;9.172;2022-12-18T11:44:42;-2.50;99.90
8939;DHT22;4504;48.810;9.172;2022-12-18T11:47:16;-2.50;99.90
8939;DHT22;4504;48.810;9.172;2022-12-18T11:49:48;-2.40;99.90
8939;DHT22;4504;48.810;9.172;2022-12-18T11:52:19;-2.30;99.90
8939;DHT22;4504;48.810;9.172;2022-12-18T11:54:51;-2.30;99.90
8939;DHT22;4504;48.810;9.172;2022-12-18T11:57:29;-2.20;99.90
8939;DHT22;4504;48.810;9.172;2022-12-18T12:00:04;-2.10;99.90
8939;DHT22;4504;48.810;9.172;2022-12-18T12:03:03;-2.10;99.90
8939;DHT22;4504;48.810;9.172;2022-12-18T12:05:42;-2.00;99.90
8939;DHT22;4504;48.810;9.172;2022-12-18T12:08:17;-1.90;99.90
8939;DHT22;4504;48.810;9.172;2022-12-18T12:10:56;-1.90;99.90
8939;DHT22;4504;48.810;9.172;2022-12-18T12:13:40;-1.90;99.90
8939;DHT22;4504;48.810;9.172;2022-12-18T12:16:16;-1.90;99.90
8939;DHT22;4504;48.810;9.172;2022-12-18T12:18:56;-1.80;99.90
8939;DHT22;4504;48.810;9.172;2022-12-18T12:21:36;-1.80;99.90
8939;DHT22;4504;48.810;9.172;2022-12-18T12:24:13;-1.80;99.90
8939;DHT22;4504;48.810;9.172;2022-12-18T12:26:47;-1.70;99.90
8939;DHT22;4504;48.810;9.172;2022-12-18T12:29:27;-1.60;99.90
8939;DHT22;4504;48.810;9.172;2022-12-18T12:32:19;-1.60;99.90
8939;DHT22;4504;48.810;9.172;2022-12-18T12:34:59;-1.50;99.90
8939;DHT22;4504;48.810;9.172;2022-12-18T12:37:36;-1.50;99.90
8939;DHT22;4504;48.810;9.172;2022-12-18T12:40:07;-1.40;99.90
8939;DHT22;4504;48.810;9.172;2022-12-18T12:42:38;-1.40;99.90
8939;DHT22;4504;48.810;9.172;2022-12-18T12:45:30;-1.40;99.90
8939;DHT22;4504;48.810;9.172;2022-12-18T12:48:01;-1.30;99.90
8939;DHT22;4504;48.810;9.172;2022-12-18T12:50:32;-1.30;99.90
8939;DHT22;4504;48.810;9.172;2022-12-18T12:53:01;-1.20;99.90
8939;DHT22;4504;48.810;9.172;2022-12-18T12:55:32;-1.20;99.90
8939;DHT22;4504;48.810;9.172;2022-12-18T12:58:04;-1.10;99.90
8939;DHT22;4504;48.810;9.172;2022-12-18T13:00:40;-1.10;99.90
8939;DHT22;4504;48.810;9.172;2022-12-18T13:03:15;-1.10;99.90
8939;DHT22;4504;48.810;9.172;2022-12-18T13:05:51;-1.10;99.90
8939;DHT22;4504;48.810;9.172;2022-12-18T13:08:24;-1.10;99.90
8939;DHT22;4504;48.810;9.172;2022-12-18T13:10:53;-1.10;99.90
8939;DHT22;4504;48.810;9.172;2022-12-18T13:13:51;-1.10;99.90
8939;DHT22;4504;48.810;9.172;2022-12-18T13:16:21;-1.10;99.90
8939;DHT22;4504;48.810;9.172;2022-12-18T13:18:49;-1.00;99.90
8939;DHT22;4504;48.810;9.172;2022-12-18T13:21:21;-0.90;99.90
8939;DHT22;4504;48.810;9.172;2022-12-18T13:23:50;-0.90;99.90
8939;DHT22;4504;48.810;9.172;2022-12-18T13:26:30;-0.90;99.90
8939;DHT22;4504;48.810;9.172;2022-12-18T13:28:59;-0.80;99.90
8939;DHT22;4504;48.810;9.172;2022-12-18T13:34:35;-0.80;99.90
8939;DHT22;4504;48.810;9.172;2022-12-18T13:43:26;-0.70;99.90
8939;DHT22;4504;48.810;9.172;2022-12-18T13:46:03;-0.70;99.90
8939;DHT22;4504;48.810;9.172;2022-12-18T13:48:33;-0.60;99.90
8939;DHT22;4504;48.810;9.172;2022-12-18T13:51:04;-0.60;99.90
8939;DHT22;4504;48.810;9.172;2022-12-18T13:53:36;-0.60;99.90
8939;DHT22;4504;48.810;9.172;2022-12-18T13:56:04;-0.60;99.90
8939;DHT22;4504;48.810;9.172;2022-12-18T13:58:31;-0.60;99.90
8939;DHT22;4504;48.810;9.172;2022-12-18T14:00:58;-0.60;99.90
8939;DHT22;4504;48.810;9.172;2022-12-18T14:03:28;-0.60;99.90
8939;DHT22;4504;48.810;9.172;2022-12-18T14:05:59;-0.60;99.90
8939;DHT22;4504;48.810;9.172;2022-12-18T14:08:34;-0.60;99.90
8939;DHT22;4504;48.810;9.172;2022-12-18T14:11:03;-0.60;99.90
8939;DHT22;4504;48.810;9.172;2022-12-18T14:13:34;-0.60;99.90
8939;DHT22;4504;48.810;9.172;2022-12-18T14:16:04;-0.60;99.90
8939;DHT22;4504;48.810;9.172;2022-12-18T14:18:38;-0.60;99.90
8939;DHT22;4504;48.810;9.172;2022-12-18T14:21:18;-0.60;99.90
8939;DHT22;4504;48.810;9.172;2022-12-18T14:23:48;-0.60;99.90
8939;DHT22;4504;48.810;9.172;2022-12-18T14:26:24;-0.60;99.90
8939;DHT22;4504;48.810;9.172;2022-12-18T14:28:54;-0.60;99.90
8939;DHT22;4504;48.810;9.172;2022-12-18T14:31:24;-0.60;99.90
8939;DHT22;4504;48.810;9.172;2022-12-18T14:33:52;-0.70;99.90
8939;DHT22;4504;48.810;9.172;2022-12-18T14:36:21;-0.70;99.90
8939;DHT22;4504;48.810;9.172;2022-12-18T14:38:52;-0.70;99.90
8939;DHT22;4504;48.810;9.172;2022-12-18T14:41:21;-0.70;99.90
8939;DHT22;4504;48.810;9.172;2022-12-18T14:43:50;-0.70;99.90
8939;DHT22;4504;48.810;9.172;2022-12-18T14:46:33;-0.70;99.90
8939;DHT22;4504;48.810;9.172;2022-12-18T14:49:03;-0.70;99.90
8939;DHT22;4504;48.810;9.172;2022-12-18T14:51:36;-0.80;99.90
8939;DHT22;4504;48.810;9.172;2022-12-18T14:54:12;-0.80;99.90
8939;DHT22;4504;48.810;9.172;2022-12-18T14:56:46;-0.80;99.90
8939;DHT22;4504;48.810;9.172;2022-12-18T14:59:19;-0.80;99.90
8939;DHT22;4504;48.810;9.172;2022-12-18T15:02:00;-0.90;99.90
8939;DHT22;4504;48.810;9.172;2022-12-18T15:04:30;-0.90;99.90
8939;DHT22;4504;48.810;9.172;2022-12-18T15:07:09;-0.90;99.90
8939;DHT22;4504;48.810;9.172;2022-12-18T15:09:41;-0.90;99.90
8939;DHT22;4504;48.810;9.172;2022-12-18T15:12:22;-0.90;99.90
8939;DHT22;4504;48.810;9.172;2022-12-18T15:14:51;-1.00;99.90
8939;DHT22;4504;48.810;9.172;2022-12-18T15:17:20;-1.00;99.90
8939;DHT22;4504;48.810;9.172;2022-12-18T15:19:50;-1.00;99.90
8939;DHT22;4504;48.810;9.172;2022-12-18T15:22:25;-1.00;99.90
8939;DHT22;4504;48.810;9.172;2022-12-18T15:24:58;-1.00;99.90
8939;DHT22;4504;48.810;9.172;2022-12-18T15:27:29;-1.10;99.90
8939;DHT22;4504;48.810;9.172;2022-12-18T15:30:16;-1.10;99.90
8939;DHT22;4504;48.810;9.172;2022-12-18T15:32:44;-1.20;99.90
8939;DHT22;4504;48.810;9.172;2022-12-18T15:35:15;-1.20;99.90
8939;DHT22;4504;48.810;9.172;2022-12-18T15:37:43;-1.20;99.90
8939;DHT22;4504;48.810;9.172;2022-12-18T15:40:17;-1.30;99.90
8939;DHT22;4504;48.810;9.172;2022-12-18T15:42:45;-1.30;99.90
8939;DHT22;4504;48.810;9.172;2022-12-18T15:45:30;-1.30;99.90
8939;DHT22;4504;48.810;9.172;2022-12-18T15:47:57;-1.30;99.90
8939;DHT22;4504;48.810;9.172;2022-12-18T15:50:25;-1.40;99.90
8939;DHT22;4504;48.810;9.172;2022-12-18T15:52:53;-1.40;99.90
8939;DHT22;4504;48.810;9.172;2022-12-18T15:55:23;-1.40;99.90
8939;DHT22;4504;48.810;9.172;2022-12-18T15:58:10;-1.40;99.90
8939;DHT22;4504;48.810;9.172;2022-12-18T16:00:39;-1.40;99.90
8939;DHT22;4504;48.810;9.172;2022-12-18T16:03:06;-1.40;99.90
8939;DHT22;4504;48.810;9.172;2022-12-18T16:05:33;-1.40;99.90
8939;DHT22;4504;48.810;9.172;2022-12-18T16:08:00;-1.50;99.90
8939;DHT22;4504;48.810;9.172;2022-12-18T16:10:29;-1.50;99.90
8939;DHT22;4504;48.810;9.172;2022-12-18T16:12:58;-1.50;99.90
8939;DHT22;4504;48.810;9.172;2022-12-18T16:15:25;-1.50;99.90
8939;DHT22;4504;48.810;9.172;2022-12-18T16:17:52;-1.50;99.90
8939;DHT22;4504;48.810;9.172;2022-12-18T16:20:21;-1.50;99.90
8939;DHT22;4504;48.810;9.172;2022-12-18T16:22:49;-1.50;99.90
8939;DHT22;4504;48.810;9.172;2022-12-18T16:25:18;-1.50;99.90
8939;DHT22;4504;48.810;9.172;2022-12-18T16:27:47;-1.50;99.90
8939;DHT22;4504;48.810;9.172;2022-12-18T16:30:15;-1.50;99.90
8939;DHT22;4504;48.810;9.172;2022-12-18T16:32:42;-1.50;99.90
8939;DHT22;4504;48.810;9.172;2022-12-18T16:35:11;-1.50;99.90